createdAt,value
2022-11-12T00:02:12.134Z,38.13
2022-11-12T00:05:33.733Z,51.27
2022-11-12T00:08:54.477Z,63.55
2022-11-12T00:12:15.289Z,70.53
2022-11-12T00:15:36.244Z,73.68
2022-11-12T00:18:57.314Z,67.43
2022-11-12T00:22:18.187Z,66.27
2022-11-12T00:25:38.954Z,63.25
2022-11-12T00:28:59.708Z,67.70
2022-11-12T00:32:20.898Z,58.88
2022-11-12T00:35:41.839Z,52.22
2022-11-12T00:39:03.629Z,59.23
2022-11-12T00:42:24.485Z,74.20
2022-11-12T00:45:45.334Z,77.82
2022-11-12T00:49:06.038Z,65.68
2022-11-12T00:52:26.766Z,60.25
2022-11-12T00:55:47.645Z,51.13
2022-11-12T00:59:08.974Z,52.20
2022-11-12T01:02:29.822Z,48.47
2022-11-12T01:05:50.776Z,40.60
2022-11-12T01:09:12.138Z,40.70
2022-11-12T01:12:33.161Z,41.07
2022-11-12T01:15:53.754Z,37.05
2022-11-12T01:19:14.454Z,37.08
2022-11-12T01:22:35.421Z,38.25
2022-11-12T01:25:56.265Z,37.70
2022-11-12T01:29:16.929Z,38.77
2022-11-12T01:32:37.952Z,36.83
2022-11-12T01:35:59.860Z,36.42
2022-11-12T01:39:20.590Z,39.92
2022-11-12T01:42:41.419Z,40.60
2022-11-12T01:46:07.346Z,42.38
2022-11-12T01:49:33.610Z,43.38
2022-11-12T01:53:10.135Z,39.08
2022-11-12T01:56:31.751Z,43.70
2022-11-12T01:59:58.241Z,47.10
2022-11-12T02:03:22.184Z,44.78
2022-11-12T02:06:46.810Z,45.00
2022-11-12T02:10:09.940Z,42.83
2022-11-12T02:13:49.327Z,51.47
2022-11-12T02:17:10.474Z,43.90
2022-11-12T02:20:35.397Z,50.25
2022-11-12T02:24:12.504Z,47.72
2022-11-12T02:27:34.406Z,45.92
2022-11-12T02:30:55.164Z,42.70
2022-11-12T02:34:15.815Z,42.53
2022-11-12T02:37:36.659Z,41.88
2022-11-12T02:40:57.438Z,43.83
2022-11-12T02:44:18.197Z,45.78
2022-11-12T02:47:39.078Z,38.03
2022-11-12T02:50:59.941Z,38.78
2022-11-12T02:54:20.592Z,39.63
2022-11-12T02:57:41.293Z,39.72
2022-11-12T03:01:02.144Z,36.45
2022-11-12T03:04:23.287Z,40.30
2022-11-12T03:07:44.099Z,35.83
2022-11-12T03:11:13.106Z,39.60
2022-11-12T03:14:33.881Z,34.78
2022-11-12T03:17:54.591Z,35.60
2022-11-12T03:21:15.263Z,36.87
2022-11-12T03:24:36.058Z,35.38
2022-11-12T03:28:02.176Z,34.83
2022-11-12T03:31:26.703Z,34.88
2022-11-12T03:34:50.571Z,32.67
2022-11-12T03:38:13.874Z,32.33
2022-11-12T03:41:34.588Z,52.15
2022-11-12T03:44:55.374Z,41.92
2022-11-12T03:48:16.064Z,33.63
2022-11-12T03:51:36.719Z,31.23
2022-11-12T03:54:57.698Z,33.77
2022-11-12T03:58:18.672Z,31.92
2022-11-12T04:01:39.665Z,37.33
2022-11-12T04:05:19.390Z,43.15
2022-11-12T04:08:40.573Z,40.10
2022-11-12T04:12:21.374Z,39.77
2022-11-12T04:15:42.117Z,43.67
2022-11-12T04:19:23.230Z,35.78
2022-11-12T04:22:44.356Z,33.33
2022-11-12T04:26:23.592Z,36.97
2022-11-12T04:30:04.141Z,35.08
2022-11-12T04:33:25.385Z,37.60
2022-11-12T04:36:46.105Z,34.20
2022-11-12T04:40:27.805Z,36.85
2022-11-12T04:44:07.066Z,32.07
2022-11-12T04:47:30.444Z,33.10
2022-11-12T04:50:59.901Z,33.95
2022-11-12T04:54:20.813Z,33.15
2022-11-12T04:57:41.712Z,33.28
2022-11-12T05:01:03.815Z,33.80
2022-11-12T05:04:27.682Z,34.53
2022-11-12T05:07:48.790Z,35.15
2022-11-12T05:11:12.795Z,30.55
2022-11-12T05:14:33.908Z,32.25
2022-11-12T05:17:54.799Z,34.27
2022-11-12T05:21:36.961Z,31.20
2022-11-12T05:25:01.533Z,35.67
2022-11-12T05:28:22.286Z,35.28
2022-11-12T05:31:43.146Z,34.83
2022-11-12T05:35:04.258Z,30.70
2022-11-12T05:38:25.463Z,30.48
2022-11-12T05:42:11.409Z,33.72
2022-11-12T05:45:28.697Z,29.15
2022-11-12T05:48:49.323Z,32.03
2022-11-12T05:52:10.026Z,31.07
2022-11-12T05:55:35.925Z,36.95
2022-11-12T05:58:58.430Z,38.80
2022-11-12T06:02:19.094Z,37.92
2022-11-12T06:05:39.837Z,32.40
2022-11-12T06:09:00.886Z,32.27
2022-11-12T06:12:21.871Z,34.90
2022-11-12T06:15:42.935Z,31.58
2022-11-12T06:19:04.937Z,32.20
2022-11-12T06:22:25.761Z,35.53
2022-11-12T06:25:47.127Z,41.17
2022-11-12T06:29:07.893Z,38.20
2022-11-12T06:32:28.789Z,35.60
2022-11-12T06:35:57.228Z,35.97
2022-11-12T06:39:18.034Z,32.15
2022-11-12T06:42:38.881Z,34.27
2022-11-12T06:46:05.377Z,35.20
2022-11-12T06:49:26.110Z,41.35
2022-11-12T06:52:46.847Z,34.65
2022-11-12T06:56:08.196Z,32.08
2022-11-12T06:59:29.286Z,36.50
2022-11-12T07:02:50.420Z,31.75
2022-11-12T07:06:19.107Z,38.95
2022-11-12T07:09:40.346Z,41.17
2022-11-12T07:13:01.143Z,38.28
2022-11-12T07:16:22.541Z,33.80
2022-11-12T07:19:43.628Z,34.83
2022-11-12T07:23:04.722Z,35.00
2022-11-12T07:26:29.915Z,30.88
2022-11-12T07:29:50.565Z,33.43
2022-11-12T07:33:11.341Z,35.00
2022-11-12T07:36:32.129Z,29.00
2022-11-12T07:39:53.001Z,32.72
2022-11-12T07:43:14.106Z,29.77
2022-11-12T07:46:35.689Z,29.53
2022-11-12T07:49:56.795Z,31.17
2022-11-12T07:53:17.510Z,31.65
2022-11-12T07:56:38.493Z,33.65
2022-11-12T07:59:59.534Z,32.58
2022-11-12T08:03:20.618Z,37.03
2022-11-12T08:06:41.618Z,34.93
2022-11-12T08:10:03.407Z,36.30
2022-11-12T08:13:24.959Z,36.63
2022-11-12T08:16:46.738Z,36.55
2022-11-12T08:20:08.247Z,35.07
2022-11-12T08:23:29.739Z,40.77
2022-11-12T08:26:50.968Z,39.60
2022-11-12T08:30:12.556Z,35.38
2022-11-12T08:33:34.835Z,38.53
2022-11-12T08:36:55.875Z,33.93
2022-11-12T08:40:17.131Z,37.90
2022-11-12T08:43:39.374Z,36.60
2022-11-12T08:47:00.362Z,40.55
2022-11-12T08:50:21.462Z,40.05
2022-11-12T08:53:42.561Z,46.43
2022-11-12T08:57:03.365Z,47.50
2022-11-12T09:00:25.110Z,48.65
2022-11-12T09:03:46.169Z,50.03
2022-11-12T09:07:09.540Z,45.65
2022-11-12T09:10:31.922Z,47.33
2022-11-12T09:13:54.439Z,42.97
2022-11-12T09:17:15.833Z,41.10
2022-11-12T09:20:36.916Z,43.60
2022-11-12T09:23:57.840Z,44.88
2022-11-12T09:27:18.681Z,45.60
2022-11-12T09:30:46.339Z,53.87
2022-11-12T09:34:07.409Z,44.85
2022-11-12T09:37:28.248Z,42.72
2022-11-12T09:40:55.730Z,45.97
2022-11-12T09:44:22.073Z,43.93
2022-11-12T09:47:52.114Z,50.33
2022-11-12T09:51:38.589Z,45.30
2022-11-12T09:55:12.974Z,47.50
2022-11-12T09:58:33.867Z,45.90
2022-11-12T10:02:35.899Z,45.27
2022-11-12T10:05:59.195Z,50.13
2022-11-12T10:09:28.975Z,46.28
2022-11-12T10:13:20.137Z,45.05
2022-11-12T10:16:49.606Z,42.25
2022-11-12T10:20:26.059Z,43.93
2022-11-12T10:23:53.255Z,40.57
2022-11-12T10:27:21.237Z,37.33
2022-11-12T10:30:43.747Z,41.40
2022-11-12T10:34:13.432Z,39.10
2022-11-12T10:37:55.845Z,40.87
2022-11-12T10:41:23.624Z,40.70
2022-11-12T10:44:45.439Z,40.50
2022-11-12T10:48:40.404Z,39.50
2022-11-12T10:52:01.745Z,62.03
2022-11-12T10:55:26.033Z,37.77
2022-11-12T10:59:09.361Z,39.07
2022-11-12T11:02:30.243Z,43.92
2022-11-12T11:06:01.950Z,40.88
2022-11-12T11:09:23.853Z,40.72
2022-11-12T11:12:44.631Z,37.37
2022-11-12T11:16:10.226Z,38.63
2022-11-12T11:19:42.080Z,40.03
2022-11-12T11:23:14.808Z,38.85
2022-11-12T11:26:54.295Z,37.45
2022-11-12T11:30:18.433Z,40.57
2022-11-12T11:34:08.666Z,35.27
2022-11-12T11:37:32.467Z,38.33
2022-11-12T11:41:02.452Z,34.35
2022-11-12T11:44:26.631Z,34.60
2022-11-12T11:48:01.683Z,23.20
2022-11-12T11:51:52.339Z,25.17
2022-11-12T11:55:18.874Z,26.85
2022-11-12T11:58:51.804Z,30.42
2022-11-12T12:02:30.611Z,28.15
2022-11-12T12:05:57.145Z,18.87
2022-11-12T12:09:33.487Z,17.37
2022-11-12T12:13:13.176Z,16.20
2022-11-12T12:17:07.527Z,19.92
2022-11-12T12:20:46.822Z,18.27
2022-11-12T12:24:24.685Z,18.27
2022-11-12T12:28:02.341Z,17.00
2022-11-12T12:31:29.479Z,15.88
2022-11-12T12:35:01.126Z,17.08
2022-11-12T12:38:32.623Z,19.17
2022-11-12T12:42:11.182Z,20.27
2022-11-12T12:45:36.502Z,25.73
2022-11-12T12:49:01.104Z,23.52
2022-11-12T12:52:21.918Z,21.55
2022-11-12T12:55:49.336Z,18.90
2022-11-12T12:59:19.913Z,23.40
2022-11-12T13:02:41.127Z,20.77
2022-11-12T13:06:07.200Z,23.25
2022-11-12T13:09:29.023Z,18.10
2022-11-12T13:13:08.342Z,16.50
2022-11-12T13:16:53.810Z,14.87
2022-11-12T13:20:14.734Z,14.90
2022-11-12T13:24:09.242Z,15.05
2022-11-12T13:27:39.482Z,18.50
2022-11-12T13:31:03.066Z,16.05
2022-11-12T13:34:32.429Z,14.67
2022-11-12T13:38:08.595Z,15.57
2022-11-12T13:41:48.366Z,13.13
2022-11-12T13:45:11.291Z,17.15
2022-11-12T13:48:43.481Z,16.05
2022-11-12T13:52:05.967Z,17.97
2022-11-12T13:55:26.898Z,17.77
2022-11-12T13:58:47.683Z,16.75
2022-11-12T14:02:26.905Z,21.65
2022-11-12T14:05:50.080Z,34.75
2022-11-12T14:09:19.872Z,28.70
2022-11-12T14:12:59.084Z,27.00
2022-11-12T14:16:19.835Z,24.35
2022-11-12T14:20:08.418Z,23.08
2022-11-12T14:23:30.214Z,23.85
2022-11-12T14:26:50.979Z,22.80
2022-11-12T14:30:12.611Z,21.70
2022-11-12T14:33:33.750Z,20.98
2022-11-12T14:36:56.049Z,23.40
2022-11-12T14:40:18.707Z,24.65
2022-11-12T14:44:13.721Z,19.83
2022-11-12T14:47:34.856Z,20.80
2022-11-12T14:51:03.374Z,26.58
2022-11-12T14:54:33.386Z,24.15
2022-11-12T14:57:58.672Z,22.55
2022-11-12T15:05:15.543Z,20.90
2022-11-12T15:08:39.619Z,23.90
2022-11-12T15:12:00.470Z,26.38
2022-11-12T15:15:24.598Z,27.50
2022-11-12T15:19:15.507Z,24.73
2022-11-12T15:22:36.613Z,27.20
2022-11-12T15:26:01.872Z,28.13
2022-11-12T15:29:27.999Z,29.13
2022-11-12T15:32:49.801Z,33.10
2022-11-12T15:36:19.470Z,52.30
2022-11-12T15:39:43.937Z,112.30
2022-11-12T15:43:19.554Z,145.35
2022-11-12T15:46:40.286Z,203.27
2022-11-12T15:50:14.071Z,188.32
2022-11-12T15:53:36.578Z,161.73
2022-11-12T15:56:57.592Z,140.80
2022-11-12T16:00:21.182Z,274.40
2022-11-12T16:03:42.287Z,162.50
2022-11-12T16:07:05.666Z,162.68
2022-11-12T16:10:26.722Z,257.13
2022-11-12T16:13:47.437Z,224.63
2022-11-12T16:17:16.379Z,174.18
2022-11-12T16:20:37.862Z,183.70
2022-11-12T16:23:59.049Z,181.77
2022-11-12T16:27:20.625Z,235.80
2022-11-12T16:30:42.364Z,258.87
2022-11-12T16:34:03.077Z,192.75
2022-11-12T16:37:24.234Z,182.82
2022-11-12T16:40:45.580Z,165.35
2022-11-12T16:44:06.158Z,160.20
2022-11-12T16:47:27.241Z,171.47
2022-11-12T16:50:49.009Z,169.88
2022-11-12T16:54:09.991Z,156.82
2022-11-12T16:57:30.546Z,323.33
2022-11-12T17:00:51.251Z,239.63
2022-11-12T17:04:12.195Z,160.03
2022-11-12T17:07:33.532Z,181.65
2022-11-12T17:10:54.738Z,161.10
2022-11-12T17:14:17.966Z,136.25
2022-11-12T17:17:39.208Z,127.87
2022-11-12T17:21:18.423Z,218.47
2022-11-12T17:24:39.449Z,256.83
2022-11-12T17:28:00.472Z,224.48
2022-11-12T17:31:23.254Z,184.98
2022-11-12T17:34:44.470Z,181.87
2022-11-12T17:38:05.353Z,183.17
2022-11-12T17:41:30.929Z,192.90
2022-11-12T17:44:51.950Z,263.65
2022-11-12T17:48:13.248Z,184.38
2022-11-12T17:51:34.622Z,122.90
2022-11-12T17:54:55.939Z,123.57
2022-11-12T17:58:17.271Z,168.25
2022-11-12T18:01:38.486Z,131.50
2022-11-12T18:04:59.517Z,126.55
2022-11-12T18:08:20.509Z,136.43
2022-11-12T18:11:45.746Z,133.70
2022-11-12T18:15:06.975Z,121.20
2022-11-12T18:18:29.502Z,112.10
2022-11-12T18:21:52.787Z,107.43
2022-11-12T18:25:13.490Z,97.33
2022-11-12T18:28:34.381Z,97.60
2022-11-12T18:31:55.662Z,101.32
2022-11-12T18:35:17.045Z,96.20
2022-11-12T18:38:38.537Z,100.30
2022-11-12T18:41:59.714Z,120.23
2022-11-12T18:45:21.052Z,124.10
2022-11-12T18:48:42.008Z,111.78
2022-11-12T18:52:02.899Z,105.22
2022-11-12T18:55:23.931Z,112.15
2022-11-12T18:58:45.776Z,124.83
2022-11-12T19:02:10.653Z,112.87
2022-11-12T19:05:32.046Z,108.60
2022-11-12T19:08:59.801Z,108.53
2022-11-12T19:12:21.994Z,98.40
2022-11-12T19:15:43.225Z,81.33
2022-11-12T19:19:04.674Z,68.22
2022-11-12T19:22:25.802Z,55.58
2022-11-12T19:25:46.870Z,55.70
2022-11-12T19:29:07.907Z,84.95
2022-11-12T19:32:29.300Z,77.77
2022-11-12T19:35:50.121Z,57.65
2022-11-12T19:39:11.185Z,61.00
2022-11-12T19:42:32.049Z,77.18
2022-11-12T19:45:54.764Z,87.32
2022-11-12T19:49:15.620Z,72.57
2022-11-12T19:52:36.738Z,70.88
2022-11-12T19:56:02.272Z,55.75
2022-11-12T19:59:23.455Z,51.55
2022-11-12T20:02:44.676Z,62.72
2022-11-12T20:06:14.279Z,66.90
2022-11-12T20:09:35.669Z,62.70
2022-11-12T20:12:56.964Z,63.25
2022-11-12T20:16:23.854Z,55.10
2022-11-12T20:19:46.292Z,47.15
2022-11-12T20:23:07.319Z,47.93
2022-11-12T20:26:28.739Z,39.67
2022-11-12T20:29:49.712Z,41.47
2022-11-12T20:33:13.376Z,51.53
2022-11-12T20:36:34.179Z,60.93
2022-11-12T20:39:55.430Z,54.87
2022-11-12T20:43:16.689Z,61.85
2022-11-12T20:46:37.614Z,63.70
2022-11-12T20:49:59.207Z,42.97
2022-11-12T20:53:20.098Z,40.37
2022-11-12T20:56:41.604Z,42.93
2022-11-12T21:00:03.218Z,98.20
2022-11-12T21:03:24.081Z,59.50
2022-11-12T21:06:44.924Z,51.92
2022-11-12T21:10:06.640Z,63.87
2022-11-12T21:13:27.547Z,62.53
2022-11-12T21:16:48.811Z,78.43
2022-11-12T21:20:10.911Z,122.15
2022-11-12T21:23:34.239Z,67.40
2022-11-12T21:26:55.276Z,54.27
2022-11-12T21:30:16.447Z,43.00
2022-11-12T21:33:38.001Z,43.80
2022-11-12T21:36:59.357Z,43.92
2022-11-12T21:40:20.627Z,44.00
2022-11-12T21:43:44.600Z,47.83
2022-11-12T21:47:05.430Z,56.77
2022-11-12T21:50:26.852Z,66.80
2022-11-12T21:53:47.806Z,67.28
2022-11-12T21:57:08.390Z,54.03
2022-11-12T22:00:45.070Z,60.07
2022-11-12T22:04:07.942Z,51.53
2022-11-12T22:07:28.601Z,50.95
2022-11-12T22:10:49.428Z,52.45
2022-11-12T22:14:10.363Z,50.60
2022-11-12T22:17:33.746Z,38.35
2022-11-12T22:21:05.775Z,38.58
2022-11-12T22:24:26.747Z,36.92
2022-11-12T22:27:47.662Z,47.97
2022-11-12T22:31:13.963Z,44.13
2022-11-12T22:34:34.988Z,39.75
2022-11-12T22:37:55.765Z,45.70
2022-11-12T22:41:21.991Z,42.08
2022-11-12T22:44:43.143Z,44.83
2022-11-12T22:48:04.153Z,38.20
2022-11-12T22:51:27.631Z,46.22
2022-11-12T22:54:48.625Z,41.03
2022-11-12T22:58:09.604Z,41.28
2022-11-12T23:01:33.059Z,44.83
2022-11-12T23:04:53.848Z,41.63
2022-11-12T23:08:14.785Z,40.35
2022-11-12T23:11:37.388Z,40.58
2022-11-12T23:14:58.306Z,46.72
2022-11-12T23:18:19.233Z,46.63
2022-11-12T23:21:40.772Z,48.72
2022-11-12T23:25:01.585Z,44.42
2022-11-12T23:28:22.384Z,52.53
2022-11-12T23:31:43.143Z,45.13
2022-11-12T23:35:04.024Z,43.37
2022-11-12T23:38:24.976Z,44.35
2022-11-12T23:41:46.094Z,47.28
2022-11-12T23:45:07.457Z,40.70
2022-11-12T23:48:28.693Z,47.37
2022-11-12T23:51:49.658Z,42.75
2022-11-12T23:55:10.348Z,43.92
2022-11-12T23:58:32.068Z,37.13
